Time,TemperatureF,DewpointF,PressureIn,WindDirection,WindDirectionDegrees,WindSpeedMPH,WindSpeedGustMPH,Humidity,HourlyPrecipIn,Conditions,Clouds,dailyrainin,SoftwareType,DateUTC
2013-03-27 11:52:00,57.0,17.0,29.95,SW,228,3.0,0.0,21,-99.99,,,-99.99,,2013-03-27 17:52:00,
2013-03-27 12:02:00,58.0,17.0,29.94,South,174,6.0,0.0,20,-99.99,,,-99.99,,2013-03-27 18:02:00,
2013-03-27 12:12:00,58.0,17.0,29.94,South,174,6.0,0.0,20,-99.99,,,-99.99,,2013-03-27 18:12:00,
2013-03-27 12:22:00,58.0,16.0,29.94,WNW,301,3.0,0.0,19,-99.99,,,-99.99,,2013-03-27 18:22:00,
2013-03-27 12:32:00,58.0,16.0,29.94,West,262,2.0,0.0,19,-99.99,,,-99.99,,2013-03-27 18:32:00,
2013-03-27 12:42:00,58.0,16.0,29.94,West,262,2.0,0.0,19,-99.99,,,-99.99,,2013-03-27 18:42:00,
2013-03-27 12:53:00,59.0,16.0,29.93,SW,230,9.0,0.0,18,-99.99,,,-99.99,,2013-03-27 18:53:00,
2013-03-27 13:02:00,59.0,14.0,29.93,SW,232,4.0,0.0,17,-99.99,,,-99.99,,2013-03-27 19:02:00,
2013-03-27 13:11:00,59.0,14.0,29.93,SW,232,4.0,0.0,17,-99.99,,,-99.99,,2013-03-27 19:11:00,
2013-03-27 13:21:00,59.0,17.0,29.93,NW,321,2.0,16.0,19,-99.99,,,-99.99,,2013-03-27 19:21:00,
2013-03-27 13:32:00,60.0,15.0,29.93,NW,316,5.0,0.0,17,-99.99,,,-99.99,,2013-03-27 19:32:00,
2013-03-27 13:42:00,60.0,15.0,29.93,NW,316,5.0,0.0,17,-99.99,,,-99.99,,2013-03-27 19:42:00,
2013-03-27 13:52:00,60.0,16.0,29.93,West,259,4.0,14.0,18,-99.99,,,-99.99,,2013-03-27 19:52:00,
2013-03-27 14:02:00,60.0,16.0,29.93,West,259,4.0,14.0,18,-99.99,,,-99.99,,2013-03-27 20:02:00,
2013-03-27 14:11:00,60.0,16.0,29.93,West,259,4.0,14.0,18,-99.99,,,-99.99,,2013-03-27 20:11:00,
2013-03-27 14:22:00,60.0,16.0,29.91,SSW,198,6.0,0.0,18,-99.99,,,-99.99,,2013-03-27 20:22:00,
2013-03-27 14:31:00,60.0,16.0,29.91,SSW,198,6.0,0.0,18,-99.99,,,-99.99,,2013-03-27 20:31:00,
2013-03-27 14:43:00,60.0,16.0,29.91,SSW,198,6.0,0.0,18,-99.99,,,-99.99,,2013-03-27 20:43:00,
2013-03-27 14:52:00,61.0,16.0,29.90,SW,235,4.0,23.0,17,-99.99,,,-99.99,,2013-03-27 20:52:00,
2013-03-27 15:01:00,60.0,18.0,29.89,WSW,243,3.0,0.0,19,-99.99,,,-99.99,,2013-03-27 21:01:00,
2013-03-27 15:12:00,60.0,18.0,29.89,WSW,243,3.0,0.0,19,-99.99,,,-99.99,,2013-03-27 21:12:00,
2013-03-27 15:22:00,60.0,15.0,29.88,North,350,7.0,0.0,17,-99.99,,,-99.99,,2013-03-27 21:22:00,
2013-03-27 15:32:00,60.0,15.0,29.88,WNW,288,4.0,0.0,17,-99.99,,,-99.99,,2013-03-27 21:32:00,
2013-03-27 15:42:00,60.0,15.0,29.88,WNW,288,4.0,0.0,17,-99.99,,,-99.99,,2013-03-27 21:42:00,
2013-03-27 15:52:00,62.0,15.0,29.88,SW,225,7.0,0.0,16,-99.99,,,-99.99,,2013-03-27 21:52:00,
2013-03-27 16:02:00,62.0,15.0,29.88,SW,225,7.0,0.0,16,-99.99,,,-99.99,,2013-03-27 22:02:00,
2013-03-27 16:12:00,62.0,15.0,29.88,SW,225,7.0,0.0,16,-99.99,,,-99.99,,2013-03-27 22:12:00,
2013-03-27 16:23:00,61.0,16.0,29.88,WNW,294,3.0,0.0,17,-99.99,,,-99.99,,2013-03-27 22:23:00,
2013-03-27 16:33:00,60.0,14.0,29.88,NW,316,4.0,0.0,16,-99.99,,,-99.99,,2013-03-27 22:33:00,
2013-03-27 16:42:00,60.0,14.0,29.88,NW,316,4.0,0.0,16,-99.99,,,-99.99,,2013-03-27 22:42:00,
2013-03-27 16:52:00,60.0,14.0,29.87,WSW,246,3.0,0.0,16,-99.99,,,-99.99,,2013-03-27 22:52:00,
2013-03-27 17:02:00,60.0,15.0,29.88,NW,307,5.0,0.0,17,-99.99,,,-99.99,,2013-03-27 23:02:00,
2013-03-27 17:11:00,60.0,15.0,29.88,NW,307,5.0,0.0,17,-99.99,,,-99.99,,2013-03-27 23:11:00,
2013-03-27 17:22:00,61.0,14.0,29.88,NW,322,9.0,0.0,16,-99.99,,,-99.99,,2013-03-27 23:22:00,
2013-03-27 17:32:00,61.0,14.0,29.88,NW,322,9.0,0.0,16,-99.99,,,-99.99,,2013-03-27 23:32:00,
2013-03-27 17:42:00,61.0,14.0,29.88,NW,322,9.0,0.0,16,-99.99,,,-99.99,,2013-03-27 23:42:00,
2013-03-27 17:51:00,61.0,14.0,29.88,NW,322,9.0,0.0,16,-99.99,,,-99.99,,2013-03-27 23:51:00,
2013-03-27 20:33:00,48.0,13.0,29.93,South,187,3.0,0.0,24,-99.99,,,-99.99,,2013-03-28 02:33:00,
2013-03-27 20:42:00,48.0,13.0,29.93,South,187,3.0,0.0,24,-99.99,,,-99.99,,2013-03-28 02:42:00,
2013-03-27 20:52:00,48.0,13.0,29.93,South,187,3.0,0.0,24,-99.99,,,-99.99,,2013-03-28 02:52:00,
2013-03-27 21:02:00,46.0,16.0,29.95,ENE,74,1.0,0.0,29,-99.99,,,-99.99,,2013-03-28 03:02:00,
2013-03-27 21:12:00,46.0,16.0,29.95,ENE,74,1.0,0.0,29,-99.99,,,-99.99,,2013-03-28 03:12:00,
2013-03-27 21:22:00,44.0,17.0,29.95,East,89,0.0,0.0,33,-99.99,,,-99.99,,2013-03-28 03:22:00,
2013-03-27 21:33:00,42.0,18.0,29.96,ESE,113,2.0,0.0,37,-99.99,,,-99.99,,2013-03-28 03:33:00,
2013-03-27 21:42:00,42.0,18.0,29.96,ESE,113,2.0,0.0,37,-99.99,,,-99.99,,2013-03-28 03:42:00,
2013-03-27 21:52:00,40.0,19.0,29.96,WSW,246,1.0,0.0,42,-99.99,,,-99.99,,2013-03-28 03:52:00,
2013-03-27 22:02:00,38.0,19.0,29.96,WSW,245,1.0,0.0,45,-99.99,,,-99.99,,2013-03-28 04:02:00,
2013-03-27 22:22:00,37.0,19.0,29.97,ESE,113,0.0,0.0,47,-99.99,,,-99.99,,2013-03-28 04:22:00,
2013-03-27 22:32:00,36.0,20.0,29.97,ESE,113,0.0,0.0,51,-99.99,,,-99.99,,2013-03-28 04:32:00,
2013-03-27 22:52:00,34.0,20.0,29.97,SSW,195,0.0,0.0,57,-99.99,,,-99.99,,2013-03-28 04:52:00,
2013-03-27 23:22:00,31.0,19.0,29.98,SE,134,0.0,0.0,61,-99.99,,,-99.99,,2013-03-28 05:22:00,
2013-03-27 23:31:00,30.0,19.0,29.98,SE,128,1.0,0.0,64,-99.99,,,-99.99,,2013-03-28 05:31:00,
2013-03-27 23:52:00,30.0,19.0,29.99,West,277,0.0,0.0,64,-99.99,,,-99.99,,2013-03-28 05:52:00,